createdAt,value
2022-10-18T10:26:24.233Z,1.30
2022-10-18T10:28:52.226Z,1.90
2022-10-18T10:31:26.955Z,1.57
2022-10-18T10:34:00.113Z,1.53
2022-10-18T10:36:27.973Z,1.80
2022-10-18T10:39:16.239Z,1.30
2022-10-18T10:41:46.576Z,1.70
2022-10-18T10:44:16.718Z,1.40
2022-10-18T10:46:44.641Z,1.57
2022-10-18T10:52:25.864Z,1.95
2022-10-18T10:54:55.790Z,1.70
2022-10-18T10:57:34.759Z,1.80
2022-10-18T11:00:02.819Z,1.60
2022-10-18T11:02:32.168Z,1.67
2022-10-18T19:16:27.069Z,5.50
2022-10-18T19:18:57.504Z,5.67
2022-10-18T19:21:25.902Z,6.93
2022-10-18T19:23:54.317Z,7.27
2022-10-18T19:26:32.022Z,7.07
2022-10-18T19:29:04.685Z,5.67
2022-10-18T19:31:35.015Z,6.43
2022-10-18T19:34:03.519Z,5.67
2022-10-18T19:36:31.375Z,5.80
2022-10-18T19:38:59.280Z,6.23
2022-10-18T19:41:28.761Z,6.03
2022-10-18T19:43:56.867Z,6.00
2022-10-18T19:46:24.771Z,6.47
2022-10-18T19:48:54.325Z,6.37
2022-10-18T19:51:25.521Z,6.30
2022-10-18T19:53:55.787Z,6.03
2022-10-18T19:56:24.274Z,6.30
2022-10-18T19:58:52.121Z,6.27
2022-10-18T20:01:20.565Z,6.57
2022-10-18T20:03:48.514Z,6.07
2022-10-18T20:06:17.774Z,6.37
2022-10-18T20:08:45.764Z,5.57
2022-10-18T20:11:14.755Z,6.20
2022-10-18T20:13:42.690Z,5.93
2022-10-18T20:16:11.529Z,5.90
2022-10-18T20:18:39.458Z,6.40
2022-10-18T20:21:08.030Z,6.40
2022-10-18T20:23:38.046Z,6.40
2022-10-18T20:26:07.072Z,6.03
2022-10-18T20:28:35.042Z,5.63
2022-10-18T20:31:04.191Z,5.57
2022-10-18T20:33:32.226Z,5.97
2022-10-18T20:36:03.913Z,5.90
2022-10-18T20:38:33.092Z,5.67
2022-10-18T20:41:06.592Z,5.73
2022-10-18T20:43:34.624Z,5.70
2022-10-18T20:46:02.858Z,6.00
2022-10-18T20:48:31.113Z,5.83
2022-10-18T20:50:59.007Z,5.50
2022-10-18T20:53:26.873Z,5.60
2022-10-18T20:56:03.470Z,5.57
2022-10-18T20:58:32.852Z,6.00
2022-10-18T21:01:06.460Z,5.10
2022-10-18T21:03:34.444Z,5.60
2022-10-18T21:06:02.371Z,5.10
2022-10-18T21:08:30.466Z,5.17
2022-10-18T21:10:58.434Z,4.67
2022-10-18T21:13:26.385Z,4.13
2022-10-18T21:15:58.626Z,4.97
2022-10-18T21:18:26.720Z,5.37
2022-10-18T21:20:54.603Z,4.23
2022-10-18T21:23:22.640Z,4.90
2022-10-18T21:25:50.664Z,5.73
2022-10-18T21:28:18.700Z,5.37
2022-10-18T21:30:46.607Z,5.80
2022-10-18T21:33:15.872Z,5.37
2022-10-18T21:35:43.758Z,5.37
2022-10-18T21:38:11.989Z,6.00
2022-10-18T21:40:44.522Z,5.53
2022-10-18T21:43:12.660Z,6.00
2022-10-18T21:45:40.526Z,6.30
2022-10-18T21:48:08.609Z,6.03
2022-10-18T21:50:37.872Z,6.13
2022-10-18T21:53:05.768Z,6.13
2022-10-18T21:55:33.635Z,6.53
2022-10-18T21:58:01.465Z,5.00
2022-10-18T22:00:29.344Z,6.50
2022-10-18T22:03:07.720Z,6.93
2022-10-18T22:05:36.940Z,6.70
2022-10-18T22:08:04.920Z,6.50
2022-10-18T22:10:32.870Z,6.40
2022-10-18T22:13:00.765Z,6.97
2022-10-18T22:15:28.690Z,6.53
2022-10-18T22:17:56.667Z,5.90
2022-10-18T22:20:24.514Z,5.40
2022-10-18T22:22:55.758Z,6.20
2022-10-18T22:25:23.664Z,4.87
2022-10-18T22:27:51.543Z,5.60
2022-10-18T22:30:19.429Z,5.77
2022-10-18T22:32:47.338Z,5.93
2022-10-18T22:35:15.439Z,5.43
2022-10-18T22:37:43.310Z,5.57
2022-10-18T22:40:13.314Z,5.40
2022-10-18T22:42:41.212Z,5.10
2022-10-18T22:45:10.028Z,5.43
2022-10-18T22:47:38.052Z,5.27
2022-10-18T22:50:06.664Z,5.40
2022-10-18T22:52:34.769Z,5.53
2022-10-18T22:55:02.863Z,4.73
2022-10-18T22:57:32.151Z,5.67
2022-10-18T23:00:00.105Z,5.70
2022-10-18T23:02:27.984Z,6.13
2022-10-18T23:04:55.984Z,6.27
2022-10-18T23:07:23.868Z,5.93
2022-10-18T23:09:51.757Z,6.00
2022-10-18T23:12:20.152Z,5.77
2022-10-18T23:14:49.741Z,6.13
2022-10-18T23:17:17.653Z,5.87
2022-10-18T23:19:45.540Z,6.20
2022-10-18T23:22:14.961Z,6.33
2022-10-18T23:24:44.270Z,7.17
2022-10-18T23:27:12.149Z,6.93
2022-10-18T23:29:40.062Z,6.63
2022-10-18T23:32:09.337Z,6.70
2022-10-18T23:34:37.184Z,6.43
2022-10-18T23:37:05.090Z,6.83
2022-10-18T23:39:32.938Z,6.87
2022-10-18T23:42:00.832Z,7.70
2022-10-18T23:44:28.693Z,6.07
2022-10-18T23:46:56.629Z,7.17
2022-10-18T23:49:25.955Z,8.73
2022-10-18T23:51:53.861Z,6.53
2022-10-18T23:54:21.928Z,6.33
2022-10-18T23:56:49.813Z,6.93
2022-10-18T23:59:17.676Z,6.50
